Sheikhupura Weather



Sheikhupura's Current Weather

Temprature 24.03o clear sky

clear sky

Rain: 0 %

Min Temprature24.03o
Max Temprature24.03o
Humidity47
Wind Speed5.11 m/h
Sun Rise05:02:41
Sun Set18:59:25
Current Time: 24-May-2022 08:39:31
Lat/Lon: 31.7131, 73.9783




Sheikhupura's Geo Location



Sheikhupura's Weather Forecast

Time Overall Temp Min Temp Max Temp Humidity Wind Speed Rain
24-May-2022 (Tue)
11:00:00 clear sky 26.080 26.080 30.180 49 4.52 m/h 0 %
14:00:00 clear sky 30.060 30.060 33.080 36 2.02 m/h 0 %
17:00:00 clear sky 33.370 33.370 33.370 24 3.03 m/h 0 %
20:00:00 clear sky 30.400 30.400 30.400 30 2.47 m/h 0 %
23:00:00 clear sky 28.820 28.820 28.820 33 2.44 m/h 0 %
25-May-2022 (Wed)
02:00:00 clear sky 27.390 27.390 27.390 35 1.97 m/h 0 %
05:00:00 clear sky 26.510 26.510 26.510 37 1.82 m/h 0 %
08:00:00 clear sky 31.390 31.390 31.390 27 2.39 m/h 0 %
11:00:00 clear sky 35.780 35.780 35.780 19 1.66 m/h 0 %
14:00:00 clear sky 38.010 38.010 38.010 16 1.17 m/h 0 %
17:00:00 clear sky 37.670 37.670 37.670 16 1.63 m/h 0 %
20:00:00 clear sky 34.300 34.300 34.300 22 2.78 m/h 0 %
23:00:00 clear sky 32.820 32.820 32.820 24 2.52 m/h 0 %
26-May-2022 (Thu)
02:00:00 clear sky 31.650 31.650 31.650 25 0.97 m/h 0 %
05:00:00 clear sky 30.280 30.280 30.280 27 1.96 m/h 0 %
08:00:00 clear sky 34.580 34.580 34.580 21 2.11 m/h 0 %
11:00:00 clear sky 39.140 39.140 39.140 16 3.31 m/h 0 %
14:00:00 clear sky 41.080 41.080 41.080 13 2.68 m/h 0 %
17:00:00 clear sky 41.170 41.170 41.170 12 1.96 m/h 0 %
20:00:00 clear sky 37.320 37.320 37.320 16 1.82 m/h 0 %
23:00:00 clear sky 35.490 35.490 35.490 18 1.19 m/h 0 %
27-May-2022 (Fri)
02:00:00 clear sky 33.390 33.390 33.390 20 2.29 m/h 0 %
05:00:00 clear sky 31.340 31.340 31.340 24 1.45 m/h 0 %
08:00:00 clear sky 36.650 36.650 36.650 18 2.42 m/h 0 %
11:00:00 clear sky 42.270 42.270 42.270 12 3.66 m/h 0 %
14:00:00 clear sky 44.660 44.660 44.660 9 3.35 m/h 0 %
17:00:00 clear sky 44.340 44.340 44.340 11 3.38 m/h 0 %
20:00:00 clear sky 39.470 39.470 39.470 19 3.14 m/h 0 %
23:00:00 clear sky 37.420 37.420 37.420 21 3.12 m/h 0 %
28-May-2022 (Sat)
02:00:00 clear sky 34.710 34.710 34.710 25 4.07 m/h 0 %
05:00:00 clear sky 33.070 33.070 33.070 28 3.9 m/h 0 %
08:00:00 clear sky 38.000 38.000 38.000 21 4.95 m/h 0 %
11:00:00 clear sky 42.690 42.690 42.690 11 5.84 m/h 0 %
14:00:00 clear sky 45.100 45.100 45.100 7 6.76 m/h 0 %
17:00:00 clear sky 45.060 45.060 45.060 6 6.38 m/h 0 %
20:00:00 clear sky 39.090 39.090 39.090 10 4.17 m/h 0 %
23:00:00 clear sky 35.020 35.020 35.020 21 9.03 m/h 0 %
29-May-2022 (Sun)
02:00:00 clear sky 32.610 32.610 32.610 33 8.18 m/h 0 %
05:00:00 clear sky 30.900 30.900 30.900 36 6.93 m/h 0 %
08:00:00 clear sky 34.510 34.510 34.510 36 7.57 m/h 0 %

Famous Cities (61)